sensor_id;sensor_type;location;lat;lon;timestamp;P1;durP1;ratioP1;P2;durP2;ratioP2
31676;SDS011;18385;51.572;6.578;2022-11-15T00:00:02;18.63;;;5.70;;
31676;SDS011;18385;51.572;6.578;2022-11-15T00:02:47;13.65;;;6.32;;
31676;SDS011;18385;51.572;6.578;2022-11-15T00:05:34;14.05;;;6.15;;
31676;SDS011;18385;51.572;6.578;2022-11-15T00:08:19;13.65;;;5.30;;
31676;SDS011;18385;51.572;6.578;2022-11-15T00:11:04;12.90;;;5.68;;
31676;SDS011;18385;51.572;6.578;2022-11-15T00:13:48;12.15;;;6.20;;
31676;SDS011;18385;51.572;6.578;2022-11-15T00:16:32;11.13;;;5.32;;
31676;SDS011;18385;51.572;6.578;2022-11-15T00:19:16;13.45;;;5.70;;
31676;SDS011;18385;51.572;6.578;2022-11-15T00:22:01;12.27;;;4.93;;
31676;SDS011;18385;51.572;6.578;2022-11-15T00:24:45;15.85;;;7.03;;
31676;SDS011;18385;51.572;6.578;2022-11-15T00:27:29;14.65;;;6.47;;
31676;SDS011;18385;51.572;6.578;2022-11-15T00:30:13;15.80;;;6.68;;
31676;SDS011;18385;51.572;6.578;2022-11-15T00:33:00;14.82;;;6.18;;
31676;SDS011;18385;51.572;6.578;2022-11-15T00:35:49;14.10;;;6.25;;
31676;SDS011;18385;51.572;6.578;2022-11-15T00:38:33;13.98;;;6.45;;
31676;SDS011;18385;51.572;6.578;2022-11-15T00:41:19;13.27;;;6.40;;
31676;SDS011;18385;51.572;6.578;2022-11-15T00:44:03;16.02;;;7.47;;
31676;SDS011;18385;51.572;6.578;2022-11-15T00:46:47;15.10;;;6.70;;
31676;SDS011;18385;51.572;6.578;2022-11-15T00:49:31;16.08;;;6.05;;
31676;SDS011;18385;51.572;6.578;2022-11-15T00:52:15;20.48;;;7.40;;
31676;SDS011;18385;51.572;6.578;2022-11-15T00:54:59;14.77;;;6.68;;
31676;SDS011;18385;51.572;6.578;2022-11-15T00:57:43;17.10;;;7.00;;
31676;SDS011;18385;51.572;6.578;2022-11-15T01:00:28;15.63;;;7.72;;
31676;SDS011;18385;51.572;6.578;2022-11-15T01:03:12;18.25;;;6.68;;
31676;SDS011;18385;51.572;6.578;2022-11-15T01:05:58;14.55;;;6.55;;
31676;SDS011;18385;51.572;6.578;2022-11-15T01:08:43;14.45;;;5.78;;
31676;SDS011;18385;51.572;6.578;2022-11-15T01:11:27;12.88;;;5.63;;
31676;SDS011;18385;51.572;6.578;2022-11-15T01:14:11;11.32;;;5.43;;
31676;SDS011;18385;51.572;6.578;2022-11-15T01:16:55;12.55;;;6.68;;
31676;SDS011;18385;51.572;6.578;2022-11-15T01:19:39;12.90;;;7.25;;
31676;SDS011;18385;51.572;6.578;2022-11-15T01:22:23;15.05;;;5.97;;
31676;SDS011;18385;51.572;6.578;2022-11-15T01:25:07;10.48;;;5.72;;
31676;SDS011;18385;51.572;6.578;2022-11-15T01:27:51;15.02;;;6.97;;
31676;SDS011;18385;51.572;6.578;2022-11-15T01:30:36;16.38;;;7.28;;
31676;SDS011;18385;51.572;6.578;2022-11-15T01:33:20;12.93;;;6.47;;
31676;SDS011;18385;51.572;6.578;2022-11-15T01:36:09;16.63;;;6.80;;
31676;SDS011;18385;51.572;6.578;2022-11-15T01:38:58;12.65;;;6.38;;
31676;SDS011;18385;51.572;6.578;2022-11-15T01:41:43;14.07;;;6.85;;
31676;SDS011;18385;51.572;6.578;2022-11-15T01:47:19;16.08;;;6.82;;
31676;SDS011;18385;51.572;6.578;2022-11-15T01:50:10;20.05;;;7.00;;
31676;SDS011;18385;51.572;6.578;2022-11-15T01:52:56;23.55;;;7.25;;
31676;SDS011;18385;51.572;6.578;2022-11-15T01:55:40;15.35;;;6.55;;
31676;SDS011;18385;51.572;6.578;2022-11-15T01:58:25;13.60;;;5.90;;
31676;SDS011;18385;51.572;6.578;2022-11-15T02:01:09;13.80;;;6.72;;
31676;SDS011;18385;51.572;6.578;2022-11-15T02:03:56;15.30;;;6.10;;
31676;SDS011;18385;51.572;6.578;2022-11-15T02:06:59;14.13;;;5.63;;
31676;SDS011;18385;51.572;6.578;2022-11-15T02:09:46;15.93;;;6.40;;
31676;SDS011;18385;51.572;6.578;2022-11-15T02:12:31;16.05;;;6.70;;
31676;SDS011;18385;51.572;6.578;2022-11-15T02:15:16;11.43;;;5.22;;
31676;SDS011;18385;51.572;6.578;2022-11-15T02:27:40;12.40;;;5.00;;
31676;SDS011;18385;51.572;6.578;2022-11-15T02:30:42;9.95;;;4.95;;
31676;SDS011;18385;51.572;6.578;2022-11-15T02:33:52;12.07;;;4.70;;
31676;SDS011;18385;51.572;6.578;2022-11-15T02:42:57;11.40;;;4.43;;
31676;SDS011;18385;51.572;6.578;2022-11-15T02:46:14;17.42;;;5.80;;
31676;SDS011;18385;51.572;6.578;2022-11-15T02:49:27;12.13;;;5.40;;
31676;SDS011;18385;51.572;6.578;2022-11-15T02:52:15;16.13;;;6.05;;
31676;SDS011;18385;51.572;6.578;2022-11-15T02:55:01;16.10;;;5.68;;
31676;SDS011;18385;51.572;6.578;2022-11-15T03:00:54;10.02;;;4.50;;
31676;SDS011;18385;51.572;6.578;2022-11-15T03:03:47;10.40;;;4.88;;
31676;SDS011;18385;51.572;6.578;2022-11-15T03:07:11;12.93;;;5.20;;
31676;SDS011;18385;51.572;6.578;2022-11-15T03:10:25;10.90;;;4.40;;
31676;SDS011;18385;51.572;6.578;2022-11-15T03:13:19;15.85;;;4.88;;
31676;SDS011;18385;51.572;6.578;2022-11-15T03:16:24;11.10;;;4.90;;
31676;SDS011;18385;51.572;6.578;2022-11-15T03:22:11;10.13;;;4.63;;
31676;SDS011;18385;51.572;6.578;2022-11-15T03:25:00;11.07;;;4.70;;
31676;SDS011;18385;51.572;6.578;2022-11-15T03:27:50;16.63;;;5.47;;
31676;SDS011;18385;51.572;6.578;2022-11-15T03:33:22;10.13;;;3.83;;
31676;SDS011;18385;51.572;6.578;2022-11-15T03:36:07;9.82;;;4.13;;
31676;SDS011;18385;51.572;6.578;2022-11-15T03:38:53;9.65;;;4.75;;
31676;SDS011;18385;51.572;6.578;2022-11-15T03:42:04;15.20;;;5.47;;
31676;SDS011;18385;51.572;6.578;2022-11-15T03:45:02;10.98;;;4.35;;
31676;SDS011;18385;51.572;6.578;2022-11-15T03:47:51;8.05;;;4.13;;
31676;SDS011;18385;51.572;6.578;2022-11-15T03:50:37;10.15;;;4.80;;
31676;SDS011;18385;51.572;6.578;2022-11-15T03:53:22;10.05;;;5.20;;
31676;SDS011;18385;51.572;6.578;2022-11-15T03:56:06;11.95;;;4.85;;
31676;SDS011;18385;51.572;6.578;2022-11-15T03:58:51;7.78;;;4.70;;
31676;SDS011;18385;51.572;6.578;2022-11-15T04:01:35;12.90;;;5.30;;
31676;SDS011;18385;51.572;6.578;2022-11-15T04:04:19;10.95;;;5.22;;
31676;SDS011;18385;51.572;6.578;2022-11-15T04:07:03;13.93;;;5.97;;
31676;SDS011;18385;51.572;6.578;2022-11-15T04:09:48;12.77;;;6.15;;
31676;SDS011;18385;51.572;6.578;2022-11-15T04:12:47;11.68;;;5.55;;
31676;SDS011;18385;51.572;6.578;2022-11-15T04:15:32;14.02;;;7.03;;
31676;SDS011;18385;51.572;6.578;2022-11-15T04:18:16;17.95;;;6.68;;
31676;SDS011;18385;51.572;6.578;2022-11-15T04:21:01;19.48;;;8.07;;
31676;SDS011;18385;51.572;6.578;2022-11-15T04:24:04;16.35;;;6.65;;
31676;SDS011;18385;51.572;6.578;2022-11-15T04:26:51;13.45;;;6.82;;
31676;SDS011;18385;51.572;6.578;2022-11-15T04:29:35;14.13;;;6.50;;
31676;SDS011;18385;51.572;6.578;2022-11-15T04:32:19;20.02;;;6.32;;
31676;SDS011;18385;51.572;6.578;2022-11-15T04:35:03;16.38;;;7.10;;
31676;SDS011;18385;51.572;6.578;2022-11-15T04:37:48;15.23;;;6.45;;
31676;SDS011;18385;51.572;6.578;2022-11-15T04:40:32;16.27;;;6.85;;
31676;SDS011;18385;51.572;6.578;2022-11-15T04:43:16;17.50;;;6.13;;
31676;SDS011;18385;51.572;6.578;2022-11-15T04:46:00;13.50;;;6.55;;
31676;SDS011;18385;51.572;6.578;2022-11-15T04:48:44;15.43;;;6.43;;
31676;SDS011;18385;51.572;6.578;2022-11-15T04:51:28;14.88;;;5.88;;
31676;SDS011;18385;51.572;6.578;2022-11-15T04:54:12;13.95;;;6.20;;
31676;SDS011;18385;51.572;6.578;2022-11-15T04:56:56;18.33;;;7.15;;
31676;SDS011;18385;51.572;6.578;2022-11-15T04:59:40;13.32;;;5.80;;
31676;SDS011;18385;51.572;6.578;2022-11-15T05:02:24;20.25;;;6.05;;
31676;SDS011;18385;51.572;6.578;2022-11-15T05:05:29;19.10;;;5.97;;
31676;SDS011;18385;51.572;6.578;2022-11-15T05:08:13;17.92;;;6.03;;
31676;SDS011;18385;51.572;6.578;2022-11-15T05:10:57;12.43;;;5.75;;
31676;SDS011;18385;51.572;6.578;2022-11-15T05:13:41;18.38;;;6.93;;
31676;SDS011;18385;51.572;6.578;2022-11-15T05:16:25;16.05;;;6.07;;
31676;SDS011;18385;51.572;6.578;2022-11-15T05:19:09;17.10;;;6.75;;
31676;SDS011;18385;51.572;6.578;2022-11-15T05:21:53;15.35;;;5.80;;
31676;SDS011;18385;51.572;6.578;2022-11-15T05:24:37;9.98;;;5.40;;
31676;SDS011;18385;51.572;6.578;2022-11-15T05:27:21;14.82;;;5.53;;
31676;SDS011;18385;51.572;6.578;2022-11-15T05:30:05;12.05;;;6.15;;
31676;SDS011;18385;51.572;6.578;2022-11-15T05:32:50;12.20;;;5.55;;
31676;SDS011;18385;51.572;6.578;2022-11-15T05:35:37;12.45;;;5.72;;
31676;SDS011;18385;51.572;6.578;2022-11-15T05:38:23;11.32;;;5.47;;
31676;SDS011;18385;51.572;6.578;2022-11-15T05:41:07;11.07;;;4.75;;
31676;SDS011;18385;51.572;6.578;2022-11-15T05:43:52;14.02;;;5.68;;
31676;SDS011;18385;51.572;6.578;2022-11-15T05:46:37;8.85;;;5.32;;
31676;SDS011;18385;51.572;6.578;2022-11-15T05:49:24;10.77;;;4.88;;
31676;SDS011;18385;51.572;6.578;2022-11-15T05:52:13;10.73;;;5.82;;
31676;SDS011;18385;51.572;6.578;2022-11-15T05:57:49;14.15;;;5.35;;
31676;SDS011;18385;51.572;6.578;2022-11-15T06:00:33;9.23;;;5.03;;
31676;SDS011;18385;51.572;6.578;2022-11-15T06:03:17;15.52;;;5.50;;
31676;SDS011;18385;51.572;6.578;2022-11-15T06:06:02;10.43;;;4.63;;
31676;SDS011;18385;51.572;6.578;2022-11-15T06:08:46;11.88;;;5.32;;
31676;SDS011;18385;51.572;6.578;2022-11-15T06:11:31;12.30;;;5.18;;
31676;SDS011;18385;51.572;6.578;2022-11-15T06:14:15;10.40;;;4.90;;
31676;SDS011;18385;51.572;6.578;2022-11-15T06:16:59;10.23;;;4.57;;
31676;SDS011;18385;51.572;6.578;2022-11-15T06:19:43;11.20;;;5.28;;
31676;SDS011;18385;51.572;6.578;2022-11-15T06:22:28;10.32;;;4.43;;
31676;SDS011;18385;51.572;6.578;2022-11-15T06:25:12;11.07;;;4.22;;
31676;SDS011;18385;51.572;6.578;2022-11-15T06:27:56;8.63;;;4.32;;
31676;SDS011;18385;51.572;6.578;2022-11-15T06:30:43;9.27;;;4.00;;
31676;SDS011;18385;51.572;6.578;2022-11-15T06:33:27;9.43;;;4.35;;
31676;SDS011;18385;51.572;6.578;2022-11-15T06:36:11;11.75;;;4.50;;
31676;SDS011;18385;51.572;6.578;2022-11-15T06:38:58;8.48;;;4.30;;
31676;SDS011;18385;51.572;6.578;2022-11-15T06:41:43;10.90;;;5.10;;
31676;SDS011;18385;51.572;6.578;2022-11-15T06:44:27;14.10;;;4.45;;
31676;SDS011;18385;51.572;6.578;2022-11-15T06:47:11;9.73;;;4.25;;
31676;SDS011;18385;51.572;6.578;2022-11-15T06:49:55;11.52;;;4.20;;
31676;SDS011;18385;51.572;6.578;2022-11-15T06:52:39;10.25;;;4.63;;
31676;SDS011;18385;51.572;6.578;2022-11-15T06:55:23;16.13;;;5.75;;
31676;SDS011;18385;51.572;6.578;2022-11-15T06:58:07;11.85;;;5.15;;
31676;SDS011;18385;51.572;6.578;2022-11-15T07:00:51;18.92;;;6.25;;
31676;SDS011;18385;51.572;6.578;2022-11-15T07:03:35;15.40;;;5.15;;
31676;SDS011;18385;51.572;6.578;2022-11-15T07:06:21;14.30;;;3.95;;
31676;SDS011;18385;51.572;6.578;2022-11-15T07:09:06;10.43;;;4.25;;
31676;SDS011;18385;51.572;6.578;2022-11-15T07:11:51;8.90;;;3.67;;
31676;SDS011;18385;51.572;6.578;2022-11-15T07:14:35;10.15;;;4.18;;
31676;SDS011;18385;51.572;6.578;2022-11-15T07:17:19;7.05;;;3.30;;
31676;SDS011;18385;51.572;6.578;2022-11-15T07:20:03;6.85;;;3.75;;
31676;SDS011;18385;51.572;6.578;2022-11-15T07:22:48;10.98;;;4.68;;
31676;SDS011;18385;51.572;6.578;2022-11-15T07:25:32;9.70;;;4.63;;
31676;SDS011;18385;51.572;6.578;2022-11-15T07:28:16;10.00;;;3.67;;
31676;SDS011;18385;51.572;6.578;2022-11-15T07:31:04;9.68;;;4.03;;
31676;SDS011;18385;51.572;6.578;2022-11-15T07:33:50;9.13;;;3.60;;
31676;SDS011;18385;51.572;6.578;2022-11-15T07:36:34;9.48;;;3.75;;
31676;SDS011;18385;51.572;6.578;2022-11-15T07:39:18;11.45;;;3.80;;
31676;SDS011;18385;51.572;6.578;2022-11-15T07:42:02;8.10;;;3.95;;
31676;SDS011;18385;51.572;6.578;2022-11-15T07:45:06;8.77;;;3.50;;
31676;SDS011;18385;51.572;6.578;2022-11-15T07:47:51;10.90;;;3.35;;
31676;SDS011;18385;51.572;6.578;2022-11-15T07:50:36;6.72;;;3.65;;
31676;SDS011;18385;51.572;6.578;2022-11-15T07:53:20;8.15;;;3.90;;
31676;SDS011;18385;51.572;6.578;2022-11-15T07:56:08;7.32;;;2.90;;
31676;SDS011;18385;51.572;6.578;2022-11-15T07:58:52;5.32;;;2.58;;
31676;SDS011;18385;51.572;6.578;2022-11-15T08:01:36;3.47;;;1.67;;
31676;SDS011;18385;51.572;6.578;2022-11-15T08:04:20;3.95;;;1.70;;
31676;SDS011;18385;51.572;6.578;2022-11-15T08:07:05;3.70;;;1.73;;
31676;SDS011;18385;51.572;6.578;2022-11-15T08:09:49;3.50;;;1.45;;
31676;SDS011;18385;51.572;6.578;2022-11-15T08:12:33;6.45;;;2.30;;
31676;SDS011;18385;51.572;6.578;2022-11-15T08:15:18;3.17;;;1.63;;
31676;SDS011;18385;51.572;6.578;2022-11-15T08:18:06;4.45;;;1.58;;
31676;SDS011;18385;51.572;6.578;2022-11-15T08:20:57;3.22;;;1.30;;
31676;SDS011;18385;51.572;6.578;2022-11-15T08:26:27;2.42;;;1.13;;
31676;SDS011;18385;51.572;6.578;2022-11-15T08:29:13;2.78;;;0.93;;
31676;SDS011;18385;51.572;6.578;2022-11-15T08:31:57;2.30;;;1.20;;
31676;SDS011;18385;51.572;6.578;2022-11-15T08:34:42;3.33;;;1.15;;
31676;SDS011;18385;51.572;6.578;2022-11-15T08:37:26;3.28;;;1.55;;
31676;SDS011;18385;51.572;6.578;2022-11-15T08:40:10;2.15;;;1.05;;
31676;SDS011;18385;51.572;6.578;2022-11-15T08:42:55;2.22;;;0.90;;
31676;SDS011;18385;51.572;6.578;2022-11-15T08:45:38;1.98;;;0.40;;
31676;SDS011;18385;51.572;6.578;2022-11-15T08:48:23;3.30;;;0.60;;
31676;SDS011;18385;51.572;6.578;2022-11-15T08:51:07;3.38;;;0.60;;
31676;SDS011;18385;51.572;6.578;2022-11-15T08:53:51;7.35;;;0.50;;
31676;SDS011;18385;51.572;6.578;2022-11-15T08:56:35;3.47;;;0.73;;
31676;SDS011;18385;51.572;6.578;2022-11-15T08:59:19;2.25;;;0.43;;
31676;SDS011;18385;51.572;6.578;2022-11-15T09:02:03;7.03;;;2.03;;
31676;SDS011;18385;51.572;6.578;2022-11-15T09:04:48;5.97;;;1.55;;
31676;SDS011;18385;51.572;6.578;2022-11-15T09:07:32;7.80;;;2.15;;
31676;SDS011;18385;51.572;6.578;2022-11-15T09:10:17;5.57;;;2.00;;
31676;SDS011;18385;51.572;6.578;2022-11-15T09:13:01;5.53;;;1.00;;
31676;SDS011;18385;51.572;6.578;2022-11-15T09:15:45;7.05;;;1.52;;
31676;SDS011;18385;51.572;6.578;2022-11-15T09:18:29;4.03;;;1.05;;
31676;SDS011;18385;51.572;6.578;2022-11-15T09:21:13;6.82;;;2.85;;
31676;SDS011;18385;51.572;6.578;2022-11-15T09:23:58;5.85;;;1.27;;
31676;SDS011;18385;51.572;6.578;2022-11-15T09:26:42;6.57;;;1.23;;
31676;SDS011;18385;51.572;6.578;2022-11-15T09:29:27;6.18;;;2.10;;
31676;SDS011;18385;51.572;6.578;2022-11-15T09:32:11;5.85;;;1.50;;
31676;SDS011;18385;51.572;6.578;2022-11-15T09:34:55;5.13;;;1.60;;
31676;SDS011;18385;51.572;6.578;2022-11-15T09:37:39;4.78;;;1.52;;
31676;SDS011;18385;51.572;6.578;2022-11-15T09:40:23;2.97;;;1.15;;
31676;SDS011;18385;51.572;6.578;2022-11-15T09:52:15;2.70;;;0.90;;
31676;SDS011;18385;51.572;6.578;2022-11-15T09:54:47;1.85;;;0.80;;
31676;SDS011;18385;51.572;6.578;2022-11-15T09:57:16;1.40;;;0.60;;
31676;SDS011;18385;51.572;6.578;2022-11-15T10:02:57;1.63;;;1.02;;
31676;SDS011;18385;51.572;6.578;2022-11-15T10:06:01;5.00;;;1.30;;
31676;SDS011;18385;51.572;6.578;2022-11-15T10:11:17;1.67;;;0.70;;
31676;SDS011;18385;51.572;6.578;2022-11-15T10:13:46;4.88;;;1.65;;
31676;SDS011;18385;51.572;6.578;2022-11-15T10:19:28;12.52;;;1.98;;
31676;SDS011;18385;51.572;6.578;2022-11-15T10:24:43;6.50;;;1.75;;
31676;SDS011;18385;51.572;6.578;2022-11-15T10:27:11;6.00;;;1.60;;
31676;SDS011;18385;51.572;6.578;2022-11-15T10:29:45;3.45;;;1.10;;
31676;SDS011;18385;51.572;6.578;2022-11-15T10:32:14;5.22;;;1.73;;
31676;SDS011;18385;51.572;6.578;2022-11-15T10:34:46;5.55;;;1.45;;
31676;SDS011;18385;51.572;6.578;2022-11-15T10:37:12;4.55;;;1.67;;
31676;SDS011;18385;51.572;6.578;2022-11-15T10:39:38;4.10;;;1.60;;
31676;SDS011;18385;51.572;6.578;2022-11-15T10:44:48;2.25;;;1.00;;
31676;SDS011;18385;51.572;6.578;2022-11-15T10:52:31;5.32;;;1.48;;
31676;SDS011;18385;51.572;6.578;2022-11-15T10:57:31;4.10;;;1.27;;
31676;SDS011;18385;51.572;6.578;2022-11-15T11:00:02;1.92;;;1.10;;
31676;SDS011;18385;51.572;6.578;2022-11-15T11:03:04;3.00;;;1.08;;
31676;SDS011;18385;51.572;6.578;2022-11-15T11:05:50;2.90;;;0.90;;
31676;SDS011;18385;51.572;6.578;2022-11-15T11:08:29;2.95;;;0.80;;
31676;SDS011;18385;51.572;6.578;2022-11-15T11:10:58;6.00;;;1.15;;
31676;SDS011;18385;51.572;6.578;2022-11-15T11:13:27;3.35;;;0.85;;
31676;SDS011;18385;51.572;6.578;2022-11-15T11:19:04;3.10;;;1.20;;
31676;SDS011;18385;51.572;6.578;2022-11-15T11:35:19;10.32;;;2.20;;
31676;SDS011;18385;51.572;6.578;2022-11-15T11:37:54;5.07;;;2.20;;
31676;SDS011;18385;51.572;6.578;2022-11-15T11:40:37;9.48;;;2.17;;
31676;SDS011;18385;51.572;6.578;2022-11-15T11:51:09;3.03;;;0.90;;
31676;SDS011;18385;51.572;6.578;2022-11-15T11:53:51;4.65;;;1.08;;
31676;SDS011;18385;51.572;6.578;2022-11-15T11:59:00;3.60;;;0.90;;
31676;SDS011;18385;51.572;6.578;2022-11-15T12:01:34;7.30;;;1.60;;
31676;SDS011;18385;51.572;6.578;2022-11-15T12:04:08;2.78;;;0.98;;
31676;SDS011;18385;51.572;6.578;2022-11-15T12:06:36;2.47;;;1.10;;
31676;SDS011;18385;51.572;6.578;2022-11-15T12:09:21;6.68;;;1.15;;
31676;SDS011;18385;51.572;6.578;2022-11-15T12:12:10;7.30;;;1.17;;
31676;SDS011;18385;51.572;6.578;2022-11-15T12:14:55;4.47;;;1.00;;
31676;SDS011;18385;51.572;6.578;2022-11-15T12:17:35;2.90;;;0.70;;
31676;SDS011;18385;51.572;6.578;2022-11-15T12:20:23;3.45;;;0.90;;
31676;SDS011;18385;51.572;6.578;2022-11-15T12:25:50;2.78;;;1.00;;
31676;SDS011;18385;51.572;6.578;2022-11-15T12:28:33;3.70;;;0.80;;
31676;SDS011;18385;51.572;6.578;2022-11-15T12:31:14;2.57;;;0.80;;
31676;SDS011;18385;51.572;6.578;2022-11-15T12:33:46;1.23;;;0.55;;
31676;SDS011;18385;51.572;6.578;2022-11-15T12:38:53;5.15;;;1.60;;
31676;SDS011;18385;51.572;6.578;2022-11-15T12:41:40;1.25;;;0.40;;
31676;SDS011;18385;51.572;6.578;2022-11-15T12:59:48;3.40;;;0.60;;
31676;SDS011;18385;51.572;6.578;2022-11-15T13:05:56;3.25;;;0.50;;
31676;SDS011;18385;51.572;6.578;2022-11-15T13:10:51;1.65;;;0.30;;
31676;SDS011;18385;51.572;6.578;2022-11-15T13:18:33;2.67;;;0.45;;
31676;SDS011;18385;51.572;6.578;2022-11-15T13:21:04;1.73;;;0.57;;
31676;SDS011;18385;51.572;6.578;2022-11-15T13:24:03;1.08;;;0.30;;
31676;SDS011;18385;51.572;6.578;2022-11-15T13:26:29;5.45;;;0.43;;
31676;SDS011;18385;51.572;6.578;2022-11-15T13:28:56;2.63;;;0.50;;
31676;SDS011;18385;51.572;6.578;2022-11-15T13:31:26;2.47;;;0.50;;
31676;SDS011;18385;51.572;6.578;2022-11-15T13:34:01;0.82;;;0.50;;
31676;SDS011;18385;51.572;6.578;2022-11-15T13:36:39;4.22;;;0.60;;
31676;SDS011;18385;51.572;6.578;2022-11-15T13:39:06;1.65;;;0.90;;
31676;SDS011;18385;51.572;6.578;2022-11-15T13:41:58;3.38;;;0.32;;
31676;SDS011;18385;51.572;6.578;2022-11-15T13:44:31;3.80;;;0.50;;
31676;SDS011;18385;51.572;6.578;2022-11-15T13:47:14;2.13;;;0.20;;
31676;SDS011;18385;51.572;6.578;2022-11-15T13:49:41;1.02;;;0.38;;
31676;SDS011;18385;51.572;6.578;2022-11-15T13:52:07;2.00;;;0.40;;
31676;SDS011;18385;51.572;6.578;2022-11-15T13:54:38;1.92;;;0.40;;
31676;SDS011;18385;51.572;6.578;2022-11-15T14:02:18;7.65;;;0.77;;
31676;SDS011;18385;51.572;6.578;2022-11-15T14:04:53;2.55;;;0.60;;
31676;SDS011;18385;51.572;6.578;2022-11-15T14:07:23;2.08;;;0.45;;
31676;SDS011;18385;51.572;6.578;2022-11-15T14:09:51;2.92;;;1.10;;
31676;SDS011;18385;51.572;6.578;2022-11-15T14:12:50;2.28;;;0.40;;
31676;SDS011;18385;51.572;6.578;2022-11-15T14:15:35;2.67;;;0.77;;
31676;SDS011;18385;51.572;6.578;2022-11-15T14:18:02;3.45;;;0.65;;
31676;SDS011;18385;51.572;6.578;2022-11-15T14:20:30;2.08;;;0.50;;
31676;SDS011;18385;51.572;6.578;2022-11-15T14:23:03;2.00;;;0.50;;
31676;SDS011;18385;51.572;6.578;2022-11-15T14:25:51;1.10;;;0.30;;
31676;SDS011;18385;51.572;6.578;2022-11-15T14:30:47;2.20;;;0.30;;
31676;SDS011;18385;51.572;6.578;2022-11-15T14:33:36;4.18;;;0.47;;
31676;SDS011;18385;51.572;6.578;2022-11-15T14:36:12;2.53;;;0.50;;
31676;SDS011;18385;51.572;6.578;2022-11-15T14:38:39;2.58;;;0.32;;
31676;SDS011;18385;51.572;6.578;2022-11-15T14:41:05;0.52;;;0.25;;
31676;SDS011;18385;51.572;6.578;2022-11-15T14:43:35;2.17;;;0.45;;
31676;SDS011;18385;51.572;6.578;2022-11-15T14:46:01;3.70;;;0.60;;
31676;SDS011;18385;51.572;6.578;2022-11-15T14:48:26;2.50;;;0.52;;
31676;SDS011;18385;51.572;6.578;2022-11-15T14:50:53;4.43;;;0.40;;
31676;SDS011;18385;51.572;6.578;2022-11-15T14:53:19;5.20;;;0.50;;
31676;SDS011;18385;51.572;6.578;2022-11-15T14:55:45;4.38;;;0.30;;
31676;SDS011;18385;51.572;6.578;2022-11-15T14:58:10;0.85;;;0.30;;
31676;SDS011;18385;51.572;6.578;2022-11-15T15:00:37;2.25;;;0.20;;
31676;SDS011;18385;51.572;6.578;2022-11-15T15:03:04;2.05;;;0.20;;
31676;SDS011;18385;51.572;6.578;2022-11-15T15:05:34;2.17;;;0.60;;
31676;SDS011;18385;51.572;6.578;2022-11-15T15:08:02;1.85;;;0.60;;
31676;SDS011;18385;51.572;6.578;2022-11-15T15:10:31;4.43;;;0.88;;
31676;SDS011;18385;51.572;6.578;2022-11-15T15:12:58;6.05;;;2.38;;
31676;SDS011;18385;51.572;6.578;2022-11-15T15:15:25;4.28;;;1.48;;
31676;SDS011;18385;51.572;6.578;2022-11-15T15:17:57;5.65;;;0.95;;
31676;SDS011;18385;51.572;6.578;2022-11-15T15:20:22;1.85;;;1.02;;
31676;SDS011;18385;51.572;6.578;2022-11-15T15:22:48;5.85;;;2.75;;
31676;SDS011;18385;51.572;6.578;2022-11-15T15:25:24;3.50;;;1.38;;
31676;SDS011;18385;51.572;6.578;2022-11-15T15:27:52;4.22;;;1.25;;
31676;SDS011;18385;51.572;6.578;2022-11-15T15:30:18;2.78;;;0.73;;
31676;SDS011;18385;51.572;6.578;2022-11-15T15:32:44;2.80;;;0.70;;
31676;SDS011;18385;51.572;6.578;2022-11-15T15:35:11;2.78;;;0.60;;
31676;SDS011;18385;51.572;6.578;2022-11-15T15:37:38;3.92;;;1.05;;
31676;SDS011;18385;51.572;6.578;2022-11-15T15:40:08;4.28;;;0.88;;
31676;SDS011;18385;51.572;6.578;2022-11-15T15:42:40;3.72;;;0.82;;
31676;SDS011;18385;51.572;6.578;2022-11-15T15:45:06;4.75;;;1.30;;
31676;SDS011;18385;51.572;6.578;2022-11-15T15:47:33;2.92;;;1.27;;
31676;SDS011;18385;51.572;6.578;2022-11-15T15:49:59;4.03;;;1.35;;
31676;SDS011;18385;51.572;6.578;2022-11-15T15:52:24;3.38;;;1.30;;
31676;SDS011;18385;51.572;6.578;2022-11-15T15:54:50;3.63;;;1.58;;
31676;SDS011;18385;51.572;6.578;2022-11-15T15:57:16;6.30;;;2.17;;
31676;SDS011;18385;51.572;6.578;2022-11-15T15:59:41;4.13;;;1.80;;
31676;SDS011;18385;51.572;6.578;2022-11-15T16:02:13;5.32;;;1.73;;
31676;SDS011;18385;51.572;6.578;2022-11-15T16:04:39;3.97;;;1.40;;
31676;SDS011;18385;51.572;6.578;2022-11-15T16:07:05;2.97;;;1.15;;
31676;SDS011;18385;51.572;6.578;2022-11-15T16:09:33;5.82;;;2.33;;
31676;SDS011;18385;51.572;6.578;2022-11-15T16:12:17;5.25;;;2.47;;
31676;SDS011;18385;51.572;6.578;2022-11-15T16:14:42;5.28;;;1.65;;
31676;SDS011;18385;51.572;6.578;2022-11-15T16:17:14;3.95;;;1.27;;
31676;SDS011;18385;51.572;6.578;2022-11-15T16:19:43;4.25;;;2.00;;
31676;SDS011;18385;51.572;6.578;2022-11-15T16:22:09;2.20;;;1.55;;
31676;SDS011;18385;51.572;6.578;2022-11-15T16:24:34;3.28;;;1.48;;
31676;SDS011;18385;51.572;6.578;2022-11-15T16:27:00;3.20;;;1.60;;
31676;SDS011;18385;51.572;6.578;2022-11-15T16:29:26;3.03;;;1.30;;
31676;SDS011;18385;51.572;6.578;2022-11-15T16:31:52;2.25;;;1.02;;
31676;SDS011;18385;51.572;6.578;2022-11-15T16:34:17;2.13;;;0.80;;
31676;SDS011;18385;51.572;6.578;2022-11-15T16:36:43;4.60;;;1.02;;
31676;SDS011;18385;51.572;6.578;2022-11-15T16:39:10;3.58;;;1.15;;
31676;SDS011;18385;51.572;6.578;2022-11-15T16:41:38;2.47;;;0.73;;
31676;SDS011;18385;51.572;6.578;2022-11-15T16:44:04;2.92;;;1.17;;
31676;SDS011;18385;51.572;6.578;2022-11-15T16:46:29;2.38;;;1.10;;
31676;SDS011;18385;51.572;6.578;2022-11-15T16:48:55;2.47;;;1.40;;
31676;SDS011;18385;51.572;6.578;2022-11-15T16:51:21;2.55;;;1.30;;
31676;SDS011;18385;51.572;6.578;2022-11-15T16:53:48;7.65;;;3.50;;
31676;SDS011;18385;51.572;6.578;2022-11-15T16:56:18;2.75;;;1.45;;
31676;SDS011;18385;51.572;6.578;2022-11-15T16:58:44;2.33;;;1.30;;
31676;SDS011;18385;51.572;6.578;2022-11-15T17:01:17;3.35;;;1.30;;
31676;SDS011;18385;51.572;6.578;2022-11-15T17:03:46;3.28;;;0.93;;
31676;SDS011;18385;51.572;6.578;2022-11-15T17:06:12;4.43;;;1.10;;
31676;SDS011;18385;51.572;6.578;2022-11-15T17:08:38;3.40;;;1.30;;
31676;SDS011;18385;51.572;6.578;2022-11-15T17:11:05;5.32;;;1.20;;
31676;SDS011;18385;51.572;6.578;2022-11-15T17:13:31;3.28;;;1.17;;
31676;SDS011;18385;51.572;6.578;2022-11-15T17:16:04;2.78;;;0.90;;
31676;SDS011;18385;51.572;6.578;2022-11-15T17:18:31;3.38;;;1.10;;
31676;SDS011;18385;51.572;6.578;2022-11-15T17:21:02;5.70;;;1.33;;
31676;SDS011;18385;51.572;6.578;2022-11-15T17:23:28;5.63;;;2.17;;
31676;SDS011;18385;51.572;6.578;2022-11-15T17:25:58;3.28;;;1.45;;
31676;SDS011;18385;51.572;6.578;2022-11-15T17:28:29;4.88;;;1.25;;
31676;SDS011;18385;51.572;6.578;2022-11-15T17:30:56;2.72;;;1.20;;
31676;SDS011;18385;51.572;6.578;2022-11-15T17:33:21;3.78;;;1.50;;
31676;SDS011;18385;51.572;6.578;2022-11-15T17:35:54;2.70;;;1.20;;
31676;SDS011;18385;51.572;6.578;2022-11-15T17:38:30;3.92;;;1.13;;
31676;SDS011;18385;51.572;6.578;2022-11-15T17:43:30;2.30;;;1.05;;
31676;SDS011;18385;51.572;6.578;2022-11-15T17:45:57;2.78;;;1.00;;
31676;SDS011;18385;51.572;6.578;2022-11-15T17:48:23;3.53;;;1.33;;
31676;SDS011;18385;51.572;6.578;2022-11-15T17:53:22;1.77;;;0.75;;
31676;SDS011;18385;51.572;6.578;2022-11-15T17:55:48;2.33;;;0.68;;
31676;SDS011;18385;51.572;6.578;2022-11-15T17:58:14;2.67;;;1.15;;
31676;SDS011;18385;51.572;6.578;2022-11-15T18:00:42;3.23;;;0.80;;
31676;SDS011;18385;51.572;6.578;2022-11-15T18:03:09;2.83;;;0.88;;
31676;SDS011;18385;51.572;6.578;2022-11-15T18:05:35;2.00;;;0.95;;
31676;SDS011;18385;51.572;6.578;2022-11-15T18:08:00;3.33;;;1.00;;
31676;SDS011;18385;51.572;6.578;2022-11-15T18:10:26;2.80;;;1.00;;
31676;SDS011;18385;51.572;6.578;2022-11-15T18:12:52;2.75;;;0.90;;